Time;durP1;ratioP1;P1;durP2;ratioP2;P2;SDS_P1;SDS_P2;PMS_P1;PMS_P2;Temp;Humidity;BMP_temperature;BMP_pressure;BME280_temperature;BME280_humidity;BME280_pressure;Samples;Min_cycle;Max_cycle;Signal;HPM_P1;HPM_P2
2022/04/20 00:00:37;;;;;;;5.82;3.35;;;8.80;99.90;;;;;;5113936;27;20084;-74
2022/04/20 00:03:03;;;;;;;6.68;3.17;;;8.80;99.90;;;;;;5131042;27;20091;-74
2022/04/20 00:05:33;;;;;;;4.85;3.17;;;8.80;99.90;;;;;;5113458;27;20695;-74
2022/04/20 00:08:03;;;;;;;5.32;3.38;;;8.80;99.90;;;;;;5113831;27;20482;-74
2022/04/20 00:10:29;;;;;;;4.80;3.05;;;8.80;99.90;;;;;;5128685;27;20394;-74
2022/04/20 00:12:55;;;;;;;;;;;8.70;99.90;;;;;;5131006;27;20046;-75
2022/04/20 00:15:22;;;;;;;4.40;3.20;;;8.70;99.90;;;;;;5131186;27;19971;-75
2022/04/20 00:17:48;;;;;;;8.40;3.10;;;8.70;99.90;;;;;;5096850;27;20038;-74
2022/04/20 00:20:13;;;;;;;4.03;2.55;;;8.60;99.90;;;;;;5112145;27;20046;-74
2022/04/20 00:22:39;;;;;;;4.87;3.10;;;8.60;99.90;;;;;;5130707;27;20047;-75
2022/04/20 00:25:05;;;;;;;6.27;3.50;;;8.50;99.90;;;;;;5130013;27;20289;-74
2022/04/20 00:27:35;;;;;;;3.75;2.50;;;8.50;99.90;;;;;;5129371;27;20051;-74
2022/04/20 00:30:09;;;;;;;8.95;3.25;;;8.50;99.90;;;;;;5130748;27;20039;-73
2022/04/20 00:32:35;;;;;;;4.82;3.33;;;8.50;99.90;;;;;;5130270;27;20073;-74
2022/04/20 00:35:01;;;;;;;5.28;3.10;;;8.40;99.90;;;;;;5113154;27;20070;-75
2022/04/20 00:37:28;;;;;;;4.70;3.03;;;8.40;99.90;;;;;;5130908;27;20505;-74
2022/04/20 00:39:53;;;;;;;5.55;3.47;;;8.40;99.90;;;;;;5130013;27;20470;-74
2022/04/20 00:42:22;;;;;;;3.65;2.90;;;8.30;99.90;;;;;;5137411;27;20049;-74
2022/04/20 00:44:48;;;;;;;5.55;3.20;;;8.30;99.90;;;;;;5117660;27;20038;-74
2022/04/20 00:47:15;;;;;;;;;;;8.20;99.90;;;;;;5132931;27;20053;-74
2022/04/20 00:49:42;;;;;;;5.32;3.20;;;8.30;99.90;;;;;;5167725;27;19949;-74
2022/04/20 00:52:07;;;;;;;4.20;3.03;;;8.20;99.90;;;;;;5172638;27;20049;-74
2022/04/20 00:54:33;;;;;;;5.10;3.10;;;8.10;99.90;;;;;;5172442;27;20035;-74
2022/04/20 00:57:00;;;;;;;6.80;3.15;;;8.20;99.90;;;;;;5153676;27;20283;-74
2022/04/20 00:59:30;;;;;;;4.07;3.28;;;8.10;99.90;;;;;;5153410;27;20076;-74
2022/04/20 01:01:56;;;;;;;4.57;3.38;;;8.00;99.90;;;;;;5153696;27;20173;-75
2022/04/20 01:04:22;;;;;;;5.47;3.58;;;8.10;99.90;;;;;;5154218;27;20065;-75
2022/04/20 01:06:50;;;;;;;4.93;3.22;;;8.30;99.90;;;;;;5148100;27;20046;-75
2022/04/20 01:09:16;;;;;;;5.20;3.38;;;8.00;99.90;;;;;;5132736;27;20175;-73
2022/04/20 01:11:42;;;;;;;4.70;3.47;;;8.00;99.90;;;;;;5133288;27;20398;-74
2022/04/20 01:14:09;;;;;;;8.07;3.50;;;7.90;99.90;;;;;;5133376;27;20125;-74
2022/04/20 01:16:35;;;;;;;7.88;3.30;;;8.10;99.90;;;;;;5132312;27;20307;-75
2022/04/20 01:19:01;;;;;;;5.47;3.53;;;8.00;99.90;;;;;;5132516;27;20049;-75
2022/04/20 01:21:27;;;;;;;3.80;3.03;;;7.90;99.90;;;;;;5114987;27;20030;-75
2022/04/20 01:23:53;;;;;;;4.55;3.42;;;7.90;99.90;;;;;;5132769;27;20087;-74
2022/04/20 01:26:20;;;;;;;5.45;3.70;;;8.00;99.90;;;;;;5142792;27;20378;-74
2022/04/20 01:28:47;;;;;;;4.60;3.40;;;7.90;99.90;;;;;;5135066;27;20034;-75
2022/04/20 01:31:17;;;;;;;6.75;3.20;;;7.90;99.90;;;;;;5132673;27;20455;-75
2022/04/20 01:33:44;;;;;;;5.70;3.45;;;7.90;99.90;;;;;;5137616;27;20049;-74
2022/04/20 01:36:11;;;;;;;5.05;3.28;;;7.90;99.90;;;;;;5152922;27;20030;-74
2022/04/20 01:38:40;;;;;;;5.22;3.47;;;7.80;99.90;;;;;;5131626;27;20435;-74
2022/04/20 01:41:06;;;;;;;6.72;3.70;;;7.70;99.90;;;;;;5132302;27;20038;-74
2022/04/20 01:43:32;;;;;;;7.78;3.60;;;7.70;99.90;;;;;;5131999;27;20469;-74
2022/04/20 01:45:58;;;;;;;6.75;3.78;;;7.60;99.90;;;;;;5132179;27;20046;-74
2022/04/20 01:48:23;;;;;;;7.07;3.45;;;7.60;99.90;;;;;;5114843;27;20044;-74
2022/04/20 01:53:34;;;;;;;5.53;3.40;;;7.50;99.90;;;;;;5131876;27;20043;-74
2022/04/20 01:56:00;;;;;;;6.15;3.55;;;7.50;99.90;;;;;;5138931;27;20628;-74
2022/04/20 01:58:29;;;;;;;5.72;3.55;;;7.50;99.90;;;;;;5136799;27;20050;-73
2022/04/20 02:00:55;;;;;;;9.55;3.78;;;7.40;99.90;;;;;;5145351;27;20377;-74
2022/04/20 02:03:20;;;;;;;5.27;3.80;;;7.40;99.90;;;;;;5152404;27;20034;-74
2022/04/20 02:05:46;;;;;;;5.50;3.50;;;7.40;99.90;;;;;;5135698;27;20283;-75
2022/04/20 02:08:12;;;;;;;7.97;3.65;;;7.70;99.90;;;;;;5147998;27;20101;-75
2022/04/20 02:10:37;;;;;;;6.93;3.70;;;7.30;99.90;;;;;;5114935;27;20039;-75
2022/04/20 02:13:03;;;;;;;4.93;3.70;;;7.40;99.90;;;;;;5132044;27;20033;-74
2022/04/20 02:15:29;;;;;;;5.53;3.70;;;7.30;99.90;;;;;;5130971;27;20375;-74
2022/04/20 02:17:54;;;;;;;5.77;3.77;;;7.30;99.90;;;;;;5131851;27;20039;-75
2022/04/20 02:20:21;;;;;;;6.70;3.65;;;7.30;99.90;;;;;;5136686;27;20121;-74
2022/04/20 02:22:46;;;;;;;8.35;3.95;;;7.30;99.90;;;;;;5135148;27;20042;-74
2022/04/20 02:25:12;;;;;;;5.83;3.93;;;7.30;99.90;;;;;;5152954;27;20117;-74
2022/04/20 02:27:38;;;;;;;5.32;3.60;;;7.20;99.90;;;;;;5152305;27;20072;-75
2022/04/20 02:30:04;;;;;;;6.30;3.83;;;7.20;99.90;;;;;;5140408;27;20070;-74
2022/04/20 02:32:30;;;;;;;7.15;3.92;;;7.20;99.90;;;;;;5149084;27;20696;-74
2022/04/20 02:34:56;;;;;;;7.40;3.73;;;7.20;99.90;;;;;;5129467;27;20027;-74
2022/04/20 02:37:22;;;;;;;8.97;3.80;;;7.20;99.90;;;;;;5137992;27;20043;-73
2022/04/20 02:39:48;;;;;;;6.78;4.10;;;7.10;99.90;;;;;;5152622;27;20110;-74
2022/04/20 02:42:15;;;;;;;;;;;7.80;99.90;;;;;;5153466;27;20070;-75
2022/04/20 02:44:41;;;;;;;6.53;3.88;;;7.10;99.90;;;;;;5156370;27;19922;-74
2022/04/20 02:47:07;;;;;;;6.90;3.88;;;7.10;99.90;;;;;;5156421;27;20042;-75
2022/04/20 02:49:35;;;;;;;;;;;7.00;99.90;;;;;;5156338;27;20250;-73
2022/04/20 02:52:00;;;;;;;4.90;3.72;;;7.00;99.90;;;;;;5135439;27;19930;-74
2022/04/20 02:54:27;;;;;;;6.47;3.92;;;7.00;99.90;;;;;;5135236;27;20486;-73
2022/04/20 02:56:53;;;;;;;;;;;7.00;99.90;;;;;;5135990;27;20401;-73
2022/04/20 02:59:19;;;;;;;4.85;3.90;;;6.90;99.90;;;;;;5135647;27;19923;-74
2022/04/20 03:01:44;;;;;;;6.47;3.67;;;6.90;99.90;;;;;;5135343;27;20090;-75
2022/04/20 03:04:10;;;;;;;7.37;3.93;;;7.10;99.90;;;;;;5135496;27;20117;-75
2022/04/20 03:06:36;;;;;;;6.07;3.67;;;6.90;99.90;;;;;;5135529;27;20508;-74
2022/04/20 03:09:03;;;;;;;8.47;4.23;;;6.80;99.90;;;;;;5134810;27;20069;-75
2022/04/20 03:11:29;;;;;;;6.82;3.90;;;6.90;99.90;;;;;;5117660;27;20292;-75
2022/04/20 03:13:56;;;;;;;6.73;4.07;;;6.90;99.90;;;;;;5135255;27;20050;-74
2022/04/20 03:16:23;;;;;;;6.05;3.97;;;6.80;99.90;;;;;;5135369;27;20747;-75
2022/04/20 03:18:49;;;;;;;6.95;4.05;;;6.80;99.90;;;;;;5135612;27;20039;-75
2022/04/20 03:21:15;;;;;;;5.65;4.32;;;6.80;99.90;;;;;;5135204;27;20112;-74
2022/04/20 03:23:41;;;;;;;5.85;4.20;;;6.80;99.90;;;;;;5134661;27;20046;-75
2022/04/20 03:26:06;;;;;;;6.28;3.70;;;6.80;99.90;;;;;;5137452;27;20034;-75
2022/04/20 03:28:32;;;;;;;6.32;3.70;;;6.80;99.90;;;;;;5134569;27;20039;-73
2022/04/20 03:30:59;;;;;;;5.65;3.92;;;6.70;99.90;;;;;;5135057;27;20046;-74
2022/04/20 03:33:25;;;;;;;;;;;6.70;99.90;;;;;;5137926;27;20481;-75
2022/04/20 03:35:50;;;;;;;7.60;4.20;;;6.70;99.90;;;;;;5149845;27;19915;-75
2022/04/20 03:38:16;;;;;;;11.60;4.35;;;6.60;99.90;;;;;;5134826;27;20141;-73
2022/04/20 03:40:42;;;;;;;8.65;4.72;;;7.30;99.90;;;;;;5134339;27;20035;-74
2022/04/20 03:43:08;;;;;;;7.80;4.72;;;6.80;99.90;;;;;;5117397;27;20042;-74
2022/04/20 03:45:34;;;;;;;6.28;4.10;;;6.80;99.90;;;;;;5116543;27;20046;-74
2022/04/20 03:47:59;;;;;;;6.93;4.23;;;6.80;99.90;;;;;;5134577;27;20039;-74
2022/04/20 03:50:26;;;;;;;10.05;4.00;;;6.70;99.90;;;;;;5134535;27;20280;-73
2022/04/20 03:52:51;;;;;;;6.00;4.47;;;6.80;99.90;;;;;;5151783;27;20045;-73
2022/04/20 03:55:17;;;;;;;6.67;4.30;;;6.80;99.90;;;;;;5136963;27;20038;-74
2022/04/20 03:57:43;;;;;;;6.25;4.20;;;6.80;99.90;;;;;;5137350;27;20066;-74
2022/04/20 04:00:09;;;;;;;6.50;4.35;;;6.80;99.90;;;;;;5129724;27;20126;-74
2022/04/20 04:02:35;;;;;;;;;;;6.80;99.90;;;;;;5117502;27;20449;-74
2022/04/20 04:05:01;;;;;;;7.65;4.43;;;6.70;99.90;;;;;;5134463;27;19958;-74
2022/04/20 04:07:27;;;;;;;6.38;4.10;;;7.00;99.90;;;;;;5119831;27;20672;-74
2022/04/20 04:09:52;;;;;;;7.90;4.50;;;6.80;99.90;;;;;;5154499;27;20493;-74
2022/04/20 04:12:23;;;;;;;7.72;4.57;;;6.70;99.90;;;;;;5154796;27;20405;-75
2022/04/20 04:14:49;;;;;;;6.63;4.57;;;6.70;99.90;;;;;;5154420;27;20035;-75
2022/04/20 04:17:15;;;;;;;7.78;4.32;;;6.80;99.90;;;;;;5137892;27;20045;-74
2022/04/20 04:19:40;;;;;;;7.13;4.60;;;6.70;99.90;;;;;;5154277;27;20046;-75
2022/04/20 04:22:06;;;;;;;6.87;4.90;;;6.70;99.90;;;;;;5154690;27;20824;-75
2022/04/20 04:24:35;;;;;;;5.27;3.77;;;6.70;99.90;;;;;;5141513;27;20490;-74
2022/04/20 04:27:03;;;;;;;7.20;4.63;;;7.20;99.90;;;;;;5117061;27;20056;-74
2022/04/20 04:29:28;;;;;;;7.10;4.25;;;6.70;99.90;;;;;;5133811;27;20038;-74
2022/04/20 04:31:55;;;;;;;8.30;5.00;;;7.10;99.90;;;;;;5133780;27;20083;-74
2022/04/20 04:34:21;;;;;;;;;;;6.80;99.90;;;;;;5133754;27;20041;-73
2022/04/20 04:36:46;;;;;;;6.38;4.43;;;6.70;99.90;;;;;;5116196;27;19915;-73
2022/04/20 04:39:17;;;;;;;7.47;4.70;;;6.60;99.90;;;;;;5133103;27;20050;-74
2022/04/20 04:41:45;;;;;;;5.68;4.53;;;6.60;99.90;;;;;;5146069;27;20120;-73
2022/04/20 04:44:10;;;;;;;6.05;4.40;;;6.60;99.90;;;;;;5153902;27;20111;-74
2022/04/20 04:49:20;;;;;;;6.20;4.50;;;6.60;99.90;;;;;;5154012;27;20085;-74
2022/04/20 04:51:46;;;;;;;6.67;4.40;;;6.60;99.90;;;;;;5153578;27;20447;-74
2022/04/20 04:54:12;;;;;;;8.97;4.80;;;6.60;99.90;;;;;;5101461;27;20045;-75
2022/04/20 04:56:37;;;;;;;6.00;5.00;;;6.60;99.90;;;;;;5132755;27;20047;-74
2022/04/20 04:59:03;;;;;;;7.47;4.60;;;7.00;99.90;;;;;;5115946;27;20038;-75
2022/04/20 05:01:29;;;;;;;7.35;4.75;;;7.00;99.90;;;;;;5133576;27;20035;-74
2022/04/20 05:03:55;;;;;;;6.43;4.83;;;6.70;99.90;;;;;;5133127;27;20027;-75
2022/04/20 05:06:20;;;;;;;7.20;4.82;;;6.70;99.90;;;;;;5133246;27;20049;-75
2022/04/20 05:08:46;;;;;;;6.37;4.60;;;6.70;99.90;;;;;;5151826;27;20030;-75
2022/04/20 05:11:12;;;;;;;7.68;4.47;;;6.70;99.90;;;;;;5151986;27;20039;-75
2022/04/20 05:13:38;;;;;;;7.30;4.88;;;6.70;99.90;;;;;;5136549;27;20118;-75
2022/04/20 05:16:04;;;;;;;6.53;4.30;;;7.20;99.90;;;;;;5149789;27;20087;-75
2022/04/20 05:18:30;;;;;;;6.22;4.63;;;6.70;99.90;;;;;;5133260;27;20092;-75
2022/04/20 05:20:56;;;;;;;7.20;4.67;;;6.80;99.90;;;;;;5132491;27;20493;-75
2022/04/20 05:23:21;;;;;;;6.53;4.83;;;6.70;99.90;;;;;;5133793;27;20256;-75
2022/04/20 05:25:48;;;;;;;6.27;4.33;;;6.90;99.90;;;;;;5116083;27;20117;-76
2022/04/20 05:28:14;;;;;;;7.57;4.68;;;7.00;99.90;;;;;;5133028;27;20042;-75
2022/04/20 05:30:40;;;;;;;5.90;4.60;;;6.90;99.90;;;;;;5132767;27;20039;-75
2022/04/20 05:33:05;;;;;;;7.47;4.55;;;7.00;99.90;;;;;;5132528;27;20133;-74
2022/04/20 05:35:31;;;;;;;8.87;4.63;;;7.00;99.90;;;;;;5132787;27;20121;-75
2022/04/20 05:43:25;;;;;;;7.70;4.63;;;7.30;99.90;;;;;;5132593;27;20042;-74
2022/04/20 05:45:52;;;;;;;7.40;4.33;;;7.40;99.90;;;;;;5132440;27;20046;-75
2022/04/20 05:48:17;;;;;;;6.63;4.50;;;7.50;99.90;;;;;;5132442;27;20038;-75
2022/04/20 05:50:43;;;;;;;6.93;4.45;;;7.60;99.90;;;;;;5114871;27;20433;-75
2022/04/20 05:53:10;;;;;;;5.60;4.10;;;7.80;99.90;;;;;;5132147;27;20371;-75
2022/04/20 05:55:36;;;;;;;7.22;4.28;;;8.10;99.90;;;;;;5144061;27;20034;-74
2022/04/20 05:58:02;;;;;;;5.70;4.13;;;7.90;99.90;;;;;;5171767;27;20083;-74
2022/04/20 06:00:28;;;;;;;7.80;4.60;;;8.50;99.90;;;;;;5153267;27;20117;-75
2022/04/20 06:02:55;;;;;;;6.90;4.45;;;8.10;99.90;;;;;;5136832;27;20145;-75
2022/04/20 06:05:21;;;;;;;5.93;4.50;;;8.20;99.90;;;;;;5135807;27;20117;-75
2022/04/20 06:07:48;;;;;;;5.50;4.00;;;8.30;99.90;;;;;;5139331;27;20058;-75
2022/04/20 06:10:14;;;;;;;7.10;4.22;;;8.40;99.90;;;;;;5141051;27;20030;-75
2022/04/20 06:12:40;;;;;;;7.70;4.82;;;8.50;99.90;;;;;;5152860;27;20545;-74
2022/04/20 06:15:06;;;;;;;8.10;5.00;;;8.60;99.90;;;;;;5152731;27;20397;-75
2022/04/20 06:17:32;;;;;;;5.85;4.68;;;8.70;99.90;;;;;;5154072;27;20504;-75
2022/04/20 06:19:58;;;;;;;9.27;5.07;;;8.80;99.90;;;;;;5136564;27;20478;-74
2022/04/20 06:22:24;;;;;;;6.50;4.25;;;8.90;99.90;;;;;;5122670;27;20035;-75
2022/04/20 06:24:50;;;;;;;5.68;4.38;;;9.10;99.90;;;;;;5157055;27;20126;-74
2022/04/20 06:27:16;;;;;;;7.53;4.47;;;9.20;99.90;;;;;;5157073;27;20125;-75
2022/04/20 06:29:42;;;;;;;7.60;3.87;;;9.30;99.90;;;;;;5147218;27;20861;-74
2022/04/20 06:32:08;;;;;;;7.35;4.43;;;9.40;99.90;;;;;;5156164;27;20347;-75
2022/04/20 06:34:34;;;;;;;7.53;4.68;;;9.60;99.90;;;;;;5155987;27;20052;-74
2022/04/20 06:37:00;;;;;;;8.43;4.30;;;9.80;99.90;;;;;;5153423;27;20037;-74
2022/04/20 06:39:26;;;;;;;7.78;4.28;;;9.90;99.90;;;;;;5155935;27;20042;-74
2022/04/20 06:41:52;;;;;;;8.07;4.30;;;10.40;99.90;;;;;;5154464;27;20034;-75
2022/04/20 06:44:18;;;;;;;5.67;3.90;;;10.80;99.90;;;;;;5134097;27;20491;-75
2022/04/20 06:46:45;;;;;;;6.05;4.22;;;11.10;99.90;;;;;;5078720;28;20809;-74
2022/04/20 06:49:11;;;;;;;4.47;3.58;;;11.20;99.90;;;;;;5112100;28;20392;-73
2022/04/20 06:59:53;;;;;;;6.57;3.83;;;12.10;99.90;;;;;;5112143;28;20578;-74
2022/04/20 07:02:21;;;;;;;6.45;3.70;;;12.30;99.90;;;;;;5111798;28;20043;-74
2022/04/20 07:04:47;;;;;;;5.97;3.47;;;12.40;99.90;;;;;;5077590;28;20031;-74
2022/04/20 07:07:12;;;;;;;4.05;3.45;;;12.50;99.90;;;;;;5111628;28;20104;-74
2022/04/20 07:09:38;;;;;;;5.50;3.58;;;12.60;99.90;;;;;;5111808;28;20040;-75
2022/04/20 07:12:04;;;;;;;4.95;3.40;;;12.70;99.90;;;;;;5094426;28;20035;-74
2022/04/20 07:14:30;;;;;;;4.72;3.20;;;12.80;99.90;;;;;;5111829;28;20043;-74
2022/04/20 07:16:56;;;;;;;5.63;3.47;;;13.00;99.90;;;;;;5111243;28;20108;-74
2022/04/20 07:19:22;;;;;;;5.13;3.13;;;13.20;99.90;;;;;;5111728;28;20040;-74
2022/04/20 07:21:48;;;;;;;5.18;3.47;;;13.20;99.90;;;;;;5110516;28;20075;-74
2022/04/20 07:24:14;;;;;;;4.70;3.05;;;13.50;99.90;;;;;;5111527;28;20447;-75
2022/04/20 07:26:39;;;;;;;4.07;2.50;;;13.60;99.90;;;;;;5111900;28;20475;-75
2022/04/20 07:29:05;;;;;;;4.85;3.05;;;13.40;99.90;;;;;;5110734;28;20100;-75
2022/04/20 07:31:31;;;;;;;6.33;3.40;;;13.50;99.90;;;;;;5111411;28;20529;-74
2022/04/20 07:33:56;;;;;;;4.85;3.03;;;13.70;99.90;;;;;;5094321;28;20785;-74
2022/04/20 07:36:22;;;;;;;5.50;3.10;;;13.80;99.90;;;;;;5093935;28;20035;-74
2022/04/20 07:38:49;;;;;;;4.05;2.75;;;14.10;99.90;;;;;;5110906;28;20070;-75
2022/04/20 07:41:14;;;;;;;;;;;14.20;99.70;;;;;;5110983;28;20043;-74
2022/04/20 07:43:40;;;;;;;3.75;2.50;;;14.40;99.50;;;;;;5123792;27;19922;-74
2022/04/20 07:46:06;;;;;;;3.72;2.38;;;14.20;98.20;;;;;;5131116;27;20096;-74
2022/04/20 07:48:32;;;;;;;4.00;2.65;;;14.30;98.30;;;;;;5131479;27;20046;-74
2022/04/20 07:51:00;;;;;;;3.95;2.78;;;14.60;97.30;;;;;;5132487;27;20027;-75
2022/04/20 07:53:26;;;;;;;3.58;2.22;;;14.70;96.40;;;;;;5127279;27;20031;-74
2022/04/20 07:55:52;;;;;;;6.15;2.38;;;14.90;96.00;;;;;;5131361;27;20176;-75
2022/04/20 07:58:18;;;;;;;4.78;2.40;;;14.90;94.70;;;;;;5128462;27;20118;-74
2022/04/20 08:00:45;;;;;;;4.13;1.95;;;15.20;95.60;;;;;;5131354;27;20039;-74
2022/04/20 08:03:11;;;;;;;5.63;2.20;;;15.20;94.60;;;;;;5131250;27;20035;-75
2022/04/20 08:05:38;;;;;;;4.25;2.40;;;15.10;94.40;;;;;;5131598;27;20035;-76
2022/04/20 08:08:04;;;;;;;3.88;2.30;;;15.40;93.90;;;;;;5130782;27;20039;-73
2022/04/20 08:10:30;;;;;;;5.38;2.30;;;15.70;94.20;;;;;;5122547;27;20079;-74
2022/04/20 08:12:56;;;;;;;3.67;2.40;;;15.90;93.40;;;;;;5120526;27;20128;-75
2022/04/20 08:15:22;;;;;;;3.65;2.28;;;16.10;92.30;;;;;;5127250;27;20067;-73
2022/04/20 08:17:47;;;;;;;3.30;1.70;;;16.00;92.50;;;;;;5128585;27;20460;-71
2022/04/20 08:20:13;;;;;;;3.65;2.17;;;16.10;92.20;;;;;;5130706;27;20043;-72
2022/04/20 08:22:44;;;;;;;2.85;1.98;;;16.40;91.00;;;;;;5130852;27;20023;-72
2022/04/20 08:25:11;;;;;;;4.10;2.10;;;16.70;90.70;;;;;;5130870;27;20443;-72
2022/04/20 08:27:38;;;;;;;3.55;1.85;;;17.10;91.00;;;;;;5113969;27;21060;-73
2022/04/20 08:30:05;;;;;;;3.50;1.92;;;17.30;90.60;;;;;;5130371;27;20035;-73
2022/04/20 08:32:31;;;;;;;2.50;1.52;;;17.60;89.30;;;;;;5130863;27;20070;-72
2022/04/20 08:34:57;;;;;;;2.22;1.65;;;17.90;88.20;;;;;;5129642;27;20039;-72
2022/04/20 08:37:23;;;;;;;2.38;1.58;;;18.10;86.30;;;;;;5113545;27;20072;-71
2022/04/20 08:39:48;;;;;;;2.80;1.75;;;18.00;82.90;;;;;;5131375;27;20069;-72
2022/04/20 08:42:20;;;;;;;2.80;1.35;;;17.80;79.70;;;;;;5130909;27;20039;-72
2022/04/20 08:44:50;;;;;;;2.97;1.60;;;17.80;79.50;;;;;;5134094;27;20042;-72
2022/04/20 08:47:22;;;;;;;4.35;1.60;;;17.80;80.60;;;;;;5151125;27;20042;-72
2022/04/20 08:49:49;;;;;;;1.80;1.30;;;18.00;79.10;;;;;;5154837;27;20045;-72
2022/04/20 08:52:37;;;;;;;3.58;1.35;;;17.70;76.10;;;;;;5135551;27;20123;-72
2022/04/20 08:55:12;;;;;;;2.33;1.65;;;18.00;77.10;;;;;;5118833;27;20043;-71
2022/04/20 08:57:39;;;;;;;3.28;1.98;;;17.90;76.70;;;;;;5133710;27;20042;-72
2022/04/20 09:00:10;;;;;;;2.28;1.20;;;18.00;76.90;;;;;;5133275;27;20039;-73
2022/04/20 09:02:36;;;;;;;3.17;1.30;;;17.80;76.00;;;;;;5133684;27;20047;-72
2022/04/20 09:05:03;;;;;;;4.30;1.63;;;18.10;76.40;;;;;;5132946;27;20562;-72
2022/04/20 09:07:31;;;;;;;2.25;1.65;;;18.60;76.70;;;;;;5150335;27;20034;-73
2022/04/20 09:09:57;;;;;;;4.03;1.70;;;18.50;77.30;;;;;;5153899;27;20069;-73
2022/04/20 09:12:23;;;;;;;3.20;1.55;;;18.50;77.50;;;;;;5135515;27;20043;-72
2022/04/20 09:14:52;;;;;;;2.63;1.63;;;19.20;78.40;;;;;;5133476;27;20091;-73
2022/04/20 09:17:20;;;;;;;3.45;1.45;;;19.40;75.90;;;;;;5133121;27;20091;-72
2022/04/20 09:19:51;;;;;;;2.08;1.52;;;19.10;74.10;;;;;;5133553;27;20406;-73
2022/04/20 09:22:26;;;;;;;3.42;1.55;;;19.40;75.20;;;;;;5116173;27;20084;-73
2022/04/20 09:25:11;;;;;;;4.40;1.58;;;20.00;75.80;;;;;;5133238;27;20147;-72
2022/04/20 09:27:42;;;;;;;1.95;1.30;;;19.70;74.60;;;;;;5133290;27;20087;-72
2022/04/20 09:30:15;;;;;;;3.25;1.48;;;19.60;72.70;;;;;;5132309;27;20047;-72
2022/04/20 09:32:45;;;;;;;2.85;1.60;;;19.60;74.10;;;;;;5133105;27;20038;-72
2022/04/20 09:35:17;;;;;;;6.28;1.42;;;19.80;74.10;;;;;;5132072;27;20035;-71
2022/04/20 09:37:43;;;;;;;2.97;1.40;;;19.90;74.10;;;;;;5132888;27;20489;-72
2022/04/20 09:40:12;;;;;;;2.22;1.20;;;19.80;72.00;;;;;;5132018;27;20039;-73
2022/04/20 09:43:08;;;;;;;3.38;1.23;;;19.90;69.90;;;;;;5132552;27;20406;-73
2022/04/20 09:45:34;;;;;;;2.25;1.30;;;20.10;68.90;;;;;;5115437;27;20401;-72
2022/04/20 09:51:13;;;;;;;3.40;1.30;;;20.10;68.00;;;;;;5131909;27;20046;-72
2022/04/20 09:53:41;;;;;;;1.48;1.10;;;20.30;67.20;;;;;;5163175;27;20034;-73
2022/04/20 09:56:20;;;;;;;2.28;1.20;;;19.90;67.40;;;;;;5132821;27;20074;-72
2022/04/20 09:58:47;;;;;;;2.22;1.00;;;20.20;67.00;;;;;;5131917;27;20054;-73
2022/04/20 10:01:35;;;;;;;2.17;1.00;;;20.20;66.10;;;;;;5163788;27;20489;-73
2022/04/20 10:04:04;;;;;;;2.63;1.00;;;20.30;68.10;;;;;;5163547;27;20039;-72
2022/04/20 10:06:31;;;;;;;1.70;1.00;;;20.90;68.80;;;;;;5131297;27;20031;-73
2022/04/20 10:08:58;;;;;;;1.70;1.13;;;20.70;66.30;;;;;;5131721;27;20321;-72
2022/04/20 10:11:25;;;;;;;2.47;1.10;;;21.00;66.30;;;;;;5132347;27;20844;-73
2022/04/20 10:16:39;;;;;;;1.77;1.10;;;20.60;67.90;;;;;;5131342;27;20087;-72
2022/04/20 10:19:08;;;;;;;3.03;1.30;;;20.40;66.50;;;;;;5129150;27;20125;-73
2022/04/20 10:21:40;;;;;;;4.68;1.25;;;20.80;69.80;;;;;;5130670;27;20071;-71
2022/04/20 10:24:08;;;;;;;2.30;1.23;;;20.80;68.20;;;;;;5129636;27;20150;-72
2022/04/20 10:26:34;;;;;;;2.53;1.35;;;21.00;66.60;;;;;;5115109;27;20126;-73
2022/04/20 10:29:00;;;;;;;;;;;21.20;67.00;;;;;;5113988;27;20034;-73
2022/04/20 10:31:40;;;;;;;2.42;1.10;;;20.90;67.10;;;;;;5130870;27;19915;-73
2022/04/20 10:34:06;;;;;;;1.77;1.10;;;21.10;66.00;;;;;;5129623;27;20038;-72
2022/04/20 10:36:33;;;;;;;1.17;0.80;;;21.10;64.80;;;;;;5159473;27;20055;-73
2022/04/20 10:39:22;;;;;;;2.30;1.02;;;21.30;64.50;;;;;;5129827;27;20127;-72
2022/04/20 10:42:15;;;;;;;2.45;1.13;;;21.40;64.10;;;;;;5130425;27;20045;-73
2022/04/20 10:45:01;;;;;;;2.63;1.10;;;21.40;66.00;;;;;;5129760;27;20062;-73
2022/04/20 10:47:32;;;;;;;2.07;1.07;;;21.50;63.70;;;;;;5132012;27;20180;-73
2022/04/20 10:50:26;;;;;;;1.55;0.90;;;21.20;62.70;;;;;;5132139;27;20284;-73
2022/04/20 10:52:57;;;;;;;1.10;0.70;;;21.40;62.80;;;;;;5131909;27;20495;-74
2022/04/20 10:55:32;;;;;;;2.25;0.93;;;21.10;62.30;;;;;;5131267;27;20043;-73
2022/04/20 10:58:15;;;;;;;1.95;0.98;;;21.40;63.80;;;;;;5132050;27;20035;-73
2022/04/20 11:00:42;;;;;;;1.73;0.88;;;21.60;64.50;;;;;;5132223;27;20501;-74
2022/04/20 11:03:10;;;;;;;1.77;0.90;;;22.10;64.30;;;;;;5132094;27;20458;-73
2022/04/20 11:05:57;;;;;;;1.30;0.77;;;22.70;61.90;;;;;;5135985;27;20100;-72
2022/04/20 11:08:24;;;;;;;1.20;0.73;;;23.00;63.40;;;;;;5134990;27;20039;-72
2022/04/20 11:19:54;;;;;;;1.98;0.70;;;22.30;61.70;;;;;;5138056;27;20081;-73
2022/04/20 11:22:21;;;;;;;1.35;0.70;;;22.20;60.00;;;;;;5138546;27;20030;-72
2022/04/20 11:24:48;;;;;;;1.35;0.57;;;22.50;61.40;;;;;;5156539;27;20394;-73
2022/04/20 11:27:17;;;;;;;1.77;0.68;;;22.50;61.70;;;;;;5155537;27;20128;-73
2022/04/20 11:29:43;;;;;;;2.20;0.77;;;22.00;60.30;;;;;;5155491;27;20042;-73
2022/04/20 11:32:10;;;;;;;1.20;0.70;;;22.30;61.70;;;;;;5143033;27;20114;-73
2022/04/20 11:34:39;;;;;;;1.63;0.70;;;22.50;61.30;;;;;;5135274;27;20046;-73
2022/04/20 11:37:09;;;;;;;2.03;0.50;;;22.70;62.30;;;;;;5134725;27;20285;-73
2022/04/20 11:39:35;;;;;;;2.45;0.73;;;22.80;61.50;;;;;;5135511;27;20043;-72
2022/04/20 11:42:02;;;;;;;;;;;22.70;62.80;;;;;;5135492;27;20045;-72
2022/04/20 11:44:29;;;;;;;1.80;0.90;;;22.70;60.90;;;;;;5134380;27;19919;-72
2022/04/20 11:46:59;;;;;;;3.33;0.80;;;23.30;61.60;;;;;;5134852;27;20046;-73
2022/04/20 11:49:41;;;;;;;2.33;0.77;;;23.00;60.80;;;;;;5134480;27;20358;-73
2022/04/20 11:52:14;;;;;;;2.30;0.52;;;22.70;59.90;;;;;;5134147;27;20053;-72
2022/04/20 11:54:41;;;;;;;0.88;0.50;;;22.80;61.50;;;;;;5134615;27;20038;-73
2022/04/20 11:57:09;;;;;;;1.45;0.70;;;22.50;61.40;;;;;;5120351;27;20509;-73
2022/04/20 11:59:44;;;;;;;1.40;1.02;;;22.40;62.60;;;;;;5148464;27;20043;-73
2022/04/20 12:02:15;;;;;;;1.52;0.85;;;22.50;61.50;;;;;;5141848;27;20047;-73
2022/04/20 12:04:46;;;;;;;1.60;0.80;;;22.40;62.10;;;;;;5137626;27;20122;-72
2022/04/20 12:07:12;;;;;;;1.98;0.70;;;22.60;62.00;;;;;;5141144;27;20124;-73
2022/04/20 12:09:41;;;;;;;2.22;0.70;;;22.50;63.10;;;;;;5148841;27;20038;-74
2022/04/20 12:12:10;;;;;;;1.00;0.60;;;22.30;62.20;;;;;;5152079;27;20050;-74
2022/04/20 12:14:38;;;;;;;2.67;0.70;;;22.50;60.90;;;;;;5133186;27;20050;-74
2022/04/20 12:17:31;;;;;;;2.60;0.85;;;22.80;62.40;;;;;;5142671;27;20058;-74
2022/04/20 12:19:56;;;;;;;1.13;0.70;;;22.90;61.30;;;;;;5133963;27;20098;-75
2022/04/20 12:22:22;;;;;;;;;;;22.80;61.80;;;;;;5164340;27;20027;-73
2022/04/20 12:25:03;;;;;;;1.65;0.88;;;22.60;61.60;;;;;;5115880;27;19996;-73
2022/04/20 12:27:28;;;;;;;1.75;0.60;;;21.80;60.40;;;;;;5131291;27;20035;-74
2022/04/20 12:29:57;;;;;;;;;;;22.30;62.40;;;;;;5134787;27;20042;-74
2022/04/20 12:32:32;;;;;;;2.00;0.80;;;22.30;63.60;;;;;;5114378;27;19919;-74
2022/04/20 12:35:01;;;;;;;1.77;0.67;;;22.80;63.70;;;;;;5134864;27;20042;-73
2022/04/20 12:37:29;;;;;;;1.73;0.80;;;22.70;62.90;;;;;;5119436;27;20026;-74
2022/04/20 12:39:56;;;;;;;1.70;0.57;;;23.00;62.70;;;;;;5133884;27;20046;-75
2022/04/20 12:42:21;;;;;;;1.15;0.50;;;22.60;61.20;;;;;;5115619;27;20039;-75
2022/04/20 12:44:57;;;;;;;;;;;22.80;60.90;;;;;;5133879;27;20087;-74
2022/04/20 12:47:26;;;;;;;1.50;0.68;;;22.20;63.20;;;;;;5135921;27;19924;-75
2022/04/20 12:50:03;;;;;;;0.88;0.50;;;22.50;61.70;;;;;;5153804;27;20081;-75
2022/04/20 12:52:29;;;;;;;0.98;0.55;;;22.00;62.20;;;;;;5135946;27;20038;-73
2022/04/20 12:54:55;;;;;;;1.67;0.80;;;21.90;62.40;;;;;;5119491;27;20034;-74
2022/04/20 13:03:20;;;;;;;3.20;0.70;;;21.90;64.30;;;;;;5132447;27;20038;-75
2022/04/20 13:05:46;;;;;;;2.65;0.90;;;21.90;63.70;;;;;;5132730;27;20428;-75
2022/04/20 13:08:12;;;;;;;;;;;21.70;64.10;;;;;;5151230;27;20038;-74
2022/04/20 13:10:43;;;;;;;1.95;0.70;;;22.10;66.90;;;;;;5178250;27;20366;-75
2022/04/20 13:13:10;;;;;;;2.70;0.80;;;22.10;63.20;;;;;;5135173;27;20114;-75
2022/04/20 13:15:37;;;;;;;2.58;1.00;;;22.00;63.50;;;;;;5115483;27;20042;-73
2022/04/20 13:18:03;;;;;;;1.75;0.90;;;21.80;64.50;;;;;;5132406;27;20125;-73
2022/04/20 13:20:30;;;;;;;2.97;0.82;;;21.80;63.30;;;;;;5131899;27;20038;-74
2022/04/20 13:22:56;;;;;;;2.78;1.00;;;22.10;65.00;;;;;;5139748;27;20385;-75
2022/04/20 13:28:06;;;;;;;2.08;1.05;;;22.20;64.80;;;;;;5139539;27;20034;-74
2022/04/20 13:30:38;;;;;;;1.90;0.88;;;22.40;64.70;;;;;;5152423;27;20038;-73
2022/04/20 13:33:05;;;;;;;1.52;1.20;;;22.70;66.30;;;;;;5152799;27;20037;-74
2022/04/20 13:35:31;;;;;;;1.70;1.33;;;22.30;65.00;;;;;;5148153;27;20027;-74
2022/04/20 13:37:57;;;;;;;2.15;1.50;;;21.70;65.10;;;;;;5132861;27;20038;-75
2022/04/20 13:40:23;;;;;;;;;;;21.80;66.10;;;;;;5134321;27;20052;-75